createdAt,value
2022-10-01T00:02:15.559Z,65.48
2022-10-01T00:07:16.762Z,63.66
2022-10-01T00:12:17.995Z,62.42
2022-10-01T00:17:19.017Z,62.10
2022-10-01T00:22:20.150Z,61.27
2022-10-01T00:27:21.155Z,60.35
2022-10-01T00:32:23.673Z,60.08
2022-10-01T00:37:24.815Z,60.32
2022-10-01T00:42:27.264Z,60.37
2022-10-01T00:47:34.293Z,60.17
2022-10-01T00:52:40.015Z,59.73
2022-10-01T00:57:44.218Z,57.62
2022-10-01T01:02:45.695Z,58.62
2022-10-01T01:07:49.753Z,59.71
2022-10-01T01:12:54.978Z,67.19
2022-10-01T01:18:10.215Z,68.08
2022-10-01T01:23:14.192Z,65.14
2022-10-01T01:28:38.531Z,63.72
2022-10-01T01:33:44.270Z,62.03
2022-10-01T01:38:57.757Z,61.01
2022-10-01T01:44:02.285Z,59.67
2022-10-01T01:49:04.768Z,57.49
2022-10-01T01:54:06.319Z,59.08
2022-10-01T01:59:07.834Z,64.26
2022-10-01T02:04:15.295Z,65.85
2022-10-01T02:09:38.862Z,63.34
2022-10-01T02:14:53.520Z,61.38
2022-10-01T02:20:17.418Z,59.48
2022-10-01T02:25:26.124Z,57.33
2022-10-01T02:30:30.683Z,59.82
2022-10-01T02:35:34.648Z,66.33
2022-10-01T02:40:41.087Z,66.36
2022-10-01T02:45:45.943Z,62.34
2022-10-01T02:51:01.325Z,60.55
2022-10-01T02:56:05.138Z,58.38
2022-10-01T03:01:06.895Z,58.09
2022-10-01T03:06:07.952Z,60.69
2022-10-01T03:11:09.030Z,68.04
2022-10-01T03:16:10.108Z,67.68
2022-10-01T03:21:11.161Z,64.89
2022-10-01T03:26:12.220Z,63.53
2022-10-01T03:31:13.384Z,61.50
2022-10-01T03:36:14.700Z,57.47
2022-10-01T03:41:15.836Z,58.56
2022-10-01T03:46:17.359Z,61.23
2022-10-01T03:51:21.300Z,68.17
2022-10-01T03:56:22.627Z,66.78
2022-10-01T04:01:25.181Z,63.75
2022-10-01T04:06:26.378Z,61.77
2022-10-01T04:11:27.435Z,60.67
2022-10-01T04:16:28.552Z,59.26
2022-10-01T04:21:30.610Z,57.39
2022-10-01T04:26:31.903Z,60.06
2022-10-01T04:31:34.398Z,67.15
2022-10-01T04:36:35.839Z,67.74
2022-10-01T04:41:38.481Z,65.33
2022-10-01T04:46:39.965Z,64.16
2022-10-01T04:51:41.151Z,62.27
2022-10-01T04:56:42.314Z,61.93
2022-10-01T05:01:43.492Z,60.63
2022-10-01T05:06:44.711Z,58.92
2022-10-01T05:11:46.074Z,57.51
2022-10-01T05:16:47.259Z,60.76
2022-10-01T05:21:48.308Z,68.41
2022-10-01T05:26:49.388Z,67.34
2022-10-01T05:31:50.561Z,64.90
2022-10-01T05:36:51.669Z,62.41
2022-10-01T05:41:54.762Z,61.62
2022-10-01T05:46:55.896Z,61.75
2022-10-01T05:51:58.000Z,61.65
2022-10-01T05:56:59.076Z,60.69
2022-10-01T06:02:00.686Z,60.02
2022-10-01T06:07:01.856Z,59.86
2022-10-01T06:12:09.033Z,60.62
2022-10-01T06:17:10.132Z,60.55
2022-10-01T06:22:12.246Z,60.51
2022-10-01T06:27:13.339Z,60.37
2022-10-01T06:32:18.918Z,59.93
2022-10-01T06:37:20.205Z,59.63
2022-10-01T06:42:23.245Z,57.82
2022-10-01T06:47:24.509Z,59.29
2022-10-01T06:52:44.346Z,66.27
2022-10-01T06:57:46.141Z,68.18
2022-10-01T07:02:47.513Z,69.05
2022-10-01T07:07:48.693Z,64.15
2022-10-01T07:12:50.497Z,57.89
2022-10-01T07:17:53.258Z,59.99
2022-10-01T07:22:59.064Z,58.73
2022-10-01T07:28:06.644Z,61.89
2022-10-01T07:33:07.837Z,64.73
2022-10-01T07:38:09.341Z,65.66
2022-10-01T07:43:10.995Z,62.47
2022-10-01T07:48:14.293Z,64.52
2022-10-01T07:53:16.546Z,60.32
2022-10-01T07:58:18.067Z,61.17
2022-10-01T08:03:19.160Z,62.74
2022-10-01T08:08:20.383Z,60.31
2022-10-01T08:13:24.101Z,60.29
2022-10-01T08:18:25.254Z,63.81
2022-10-01T08:23:26.358Z,56.62
2022-10-01T08:28:27.667Z,57.60
2022-10-01T08:33:28.814Z,57.71
2022-10-01T08:38:29.951Z,62.62
2022-10-01T08:43:36.437Z,57.82
2022-10-01T08:48:43.164Z,58.90
2022-10-01T08:53:54.363Z,62.13
2022-10-01T08:58:58.896Z,59.37
2022-10-01T09:04:00.289Z,58.00
2022-10-01T09:09:23.041Z,58.96
2022-10-01T09:14:29.905Z,58.70
2022-10-01T09:19:56.033Z,58.33
2022-10-01T09:25:23.615Z,58.42
2022-10-01T09:30:25.487Z,58.30
2022-10-01T09:35:38.055Z,58.18
2022-10-01T09:40:45.857Z,57.87
2022-10-01T09:45:47.042Z,57.45
2022-10-01T09:50:57.503Z,56.60
2022-10-01T09:56:04.768Z,56.78
2022-10-01T10:01:19.888Z,57.17
2022-10-01T10:06:27.489Z,56.66
2022-10-01T10:11:31.408Z,56.70
2022-10-01T10:16:36.683Z,56.77
2022-10-01T10:21:51.192Z,56.56
2022-10-01T10:26:57.737Z,56.95
2022-10-01T10:32:03.665Z,56.15
2022-10-01T10:37:13.078Z,56.30
2022-10-01T10:42:15.011Z,56.22
2022-10-01T10:47:19.541Z,55.62
2022-10-01T10:52:29.554Z,56.12
2022-10-01T10:57:33.481Z,56.39
2022-10-01T11:02:34.657Z,55.98
2022-10-01T11:07:35.849Z,55.61
2022-10-01T11:13:08.245Z,55.32
2022-10-01T11:18:15.184Z,55.23
2022-10-01T11:23:39.621Z,55.08
2022-10-01T11:29:11.500Z,54.59
2022-10-01T11:34:26.671Z,55.18
2022-10-01T11:39:31.313Z,55.23
2022-10-01T11:45:20.576Z,54.71
2022-10-01T11:50:28.091Z,55.16
2022-10-01T11:55:58.905Z,54.90
2022-10-01T12:01:06.516Z,54.92
2022-10-01T12:06:14.039Z,55.09
2022-10-01T12:11:28.640Z,54.87
2022-10-01T12:16:46.311Z,55.49
2022-10-01T12:21:58.770Z,55.86
2022-10-01T12:27:28.746Z,55.89
2022-10-01T12:33:05.947Z,56.28
2022-10-01T12:38:31.925Z,56.16
2022-10-01T12:43:46.602Z,56.04
2022-10-01T12:49:11.994Z,55.83
2022-10-01T12:54:33.779Z,55.63
2022-10-01T12:59:50.396Z,55.70
2022-10-01T13:05:16.145Z,56.28
2022-10-01T13:10:38.922Z,56.86
2022-10-01T13:15:46.387Z,56.95
2022-10-01T13:21:02.371Z,57.04
2022-10-01T13:26:10.419Z,56.97
2022-10-01T13:31:14.736Z,56.84
2022-10-01T13:36:31.038Z,56.78
2022-10-01T13:41:34.148Z,56.83
2022-10-01T13:46:50.504Z,56.74
2022-10-01T13:51:52.566Z,56.82
2022-10-01T13:56:54.260Z,56.66
2022-10-01T14:01:56.985Z,56.46
2022-10-01T14:07:21.312Z,56.02
2022-10-01T14:13:00.950Z,56.23
2022-10-01T14:18:22.740Z,56.38
2022-10-01T14:23:33.131Z,55.93
2022-10-01T14:28:46.278Z,55.81
2022-10-01T14:34:19.595Z,56.20
2022-10-01T14:39:29.765Z,56.51
2022-10-01T14:44:38.509Z,57.10
2022-10-01T14:49:39.787Z,57.64
2022-10-01T14:55:11.105Z,58.21
2022-10-01T15:00:17.915Z,58.64
2022-10-01T15:05:38.635Z,59.21
2022-10-01T15:10:51.564Z,59.89
2022-10-01T15:15:53.983Z,60.08
2022-10-01T15:20:59.717Z,60.24
2022-10-01T15:26:04.285Z,60.48
2022-10-01T15:31:06.601Z,60.79
2022-10-01T15:36:18.183Z,61.31
2022-10-01T15:41:33.003Z,64.44
2022-10-01T15:46:35.322Z,64.02
2022-10-01T15:51:43.504Z,59.65
2022-10-01T15:56:47.850Z,57.55
2022-10-01T16:01:49.000Z,58.59
2022-10-01T16:06:51.289Z,59.77
2022-10-01T16:11:57.956Z,60.86
2022-10-01T16:17:20.800Z,65.14
2022-10-01T16:22:30.977Z,67.55
2022-10-01T16:27:56.578Z,63.93
2022-10-01T16:33:04.808Z,55.64
2022-10-01T16:38:07.451Z,56.00
2022-10-01T16:43:16.387Z,57.47
2022-10-01T16:48:21.653Z,59.69
2022-10-01T16:53:23.997Z,64.28
2022-10-01T16:58:26.115Z,66.18
2022-10-01T17:03:27.285Z,64.33
2022-10-01T17:08:28.572Z,55.58
2022-10-01T17:13:34.853Z,56.52
2022-10-01T17:18:36.200Z,59.18
2022-10-01T17:23:37.969Z,60.59
2022-10-01T17:28:39.275Z,65.60
2022-10-01T17:33:40.283Z,64.09
2022-10-01T17:38:44.289Z,63.58
2022-10-01T17:43:45.369Z,61.79
2022-10-01T17:48:48.166Z,58.16
2022-10-01T17:53:49.691Z,58.17
2022-10-01T17:58:53.002Z,62.52
2022-10-01T18:03:56.172Z,63.42
2022-10-01T18:08:57.365Z,61.54
2022-10-01T18:14:00.821Z,61.00
2022-10-01T18:24:24.668Z,59.07
2022-10-01T18:29:26.952Z,63.67
2022-10-01T18:34:35.896Z,63.17
2022-10-01T18:39:44.287Z,60.24
2022-10-01T18:44:52.545Z,60.00
2022-10-01T18:50:13.527Z,63.56
2022-10-01T18:55:49.054Z,63.32
2022-10-01T19:00:50.200Z,62.09
2022-10-01T19:06:28.834Z,58.97
2022-10-01T19:12:07.437Z,60.38
2022-10-01T19:17:27.456Z,65.47
2022-10-01T19:22:50.653Z,64.68
2022-10-01T19:28:05.894Z,63.12
2022-10-01T19:33:11.088Z,62.19
2022-10-01T19:38:36.274Z,62.07
2022-10-01T19:43:46.569Z,60.71
2022-10-01T19:49:03.346Z,61.57
2022-10-01T19:54:16.266Z,60.45
2022-10-01T19:59:20.034Z,59.72
2022-10-01T20:04:47.021Z,64.14
2022-10-01T20:10:05.299Z,64.59
2022-10-01T20:15:38.984Z,62.45
2022-10-01T20:20:43.299Z,61.07
2022-10-01T20:26:07.052Z,61.30
2022-10-01T20:31:19.210Z,63.68
2022-10-01T20:36:35.054Z,65.83
2022-10-01T20:41:45.391Z,66.67
2022-10-01T20:46:49.762Z,66.78
2022-10-01T20:52:19.289Z,66.55
2022-10-01T20:57:45.093Z,66.20
2022-10-01T21:02:52.175Z,65.74
2022-10-01T21:07:58.573Z,65.45
2022-10-01T21:13:07.270Z,64.45
2022-10-01T21:18:35.713Z,64.27
2022-10-01T21:23:55.278Z,64.48
2022-10-01T21:29:16.078Z,65.07
2022-10-01T21:34:38.921Z,64.57
2022-10-01T21:40:17.891Z,62.99
2022-10-01T21:45:45.891Z,64.32
2022-10-01T21:50:55.240Z,64.89
2022-10-01T21:56:21.158Z,64.55
2022-10-01T22:01:38.378Z,64.79
2022-10-01T22:06:50.466Z,64.17
2022-10-01T22:11:57.548Z,63.94
2022-10-01T22:17:07.521Z,64.07
2022-10-01T22:22:13.661Z,65.12
2022-10-01T22:27:52.899Z,65.33
2022-10-01T22:33:21.043Z,64.96
2022-10-01T22:38:32.692Z,65.12
2022-10-01T22:43:35.549Z,65.40
2022-10-01T22:48:59.224Z,64.50
2022-10-01T22:54:20.878Z,64.43
2022-10-01T22:59:27.983Z,64.35
2022-10-01T23:04:39.892Z,64.46
2022-10-01T23:10:05.472Z,64.43
2022-10-01T23:15:40.252Z,66.58
2022-10-01T23:20:54.417Z,65.82
2022-10-01T23:26:11.114Z,65.69
2022-10-01T23:31:12.487Z,66.41
2022-10-01T23:36:45.678Z,67.12
2022-10-01T23:41:52.798Z,67.29
2022-10-01T23:46:55.391Z,67.11
2022-10-01T23:52:13.440Z,66.83
2022-10-01T23:57:31.399Z,67.91
